Time;durP1;ratioP1;P1;durP2;ratioP2;P2;SDS_P1;SDS_P2;PMS_P1;PMS_P2;Temp;Humidity;BMP_temperature;BMP_pressure;BME280_temperature;BME280_humidity;BME280_pressure;Samples;Min_cycle;Max_cycle;Signal;HPM_P1;HPM_P2
2023/12/25 00:01:47;;;;;;;;;;;;;;;-140.72;100.00;63637.94;5101974;28;20014;-72
2023/12/25 00:04:12;;;;;;;;;;;;;;;-140.72;100.00;63601.31;5096747;28;19920;-72
2023/12/25 00:06:37;;;;;;;;;;;;;;;-140.72;100.00;63619.63;5096266;28;19920;-72
2023/12/25 00:09:02;;;;;;;;;;;;;;;-140.72;100.00;63640.00;5095814;28;19934;-72
2023/12/25 00:11:28;;;;;;;;;;;;;;;-140.72;100.00;63619.63;5089819;28;20411;-72
2023/12/25 00:13:54;;;;;;;;;;;;;;;-140.72;100.00;63658.31;5089607;28;19947;-72
2023/12/25 00:16:20;;;;;;;;;;;;;;;-140.72;100.00;63652.19;5084208;28;19928;-72
2023/12/25 00:18:45;;;;;;;;;;;;;;;-140.72;100.00;63601.31;5095486;28;19965;-72
2023/12/25 00:21:10;;;;;;;;;;;;;;;-140.72;100.00;63595.22;5103182;28;20263;-73
2023/12/25 00:23:36;;;;;;;;;;;;;;;-140.72;100.00;63591.16;5099336;28;19935;-73
2023/12/25 00:26:02;;;;;;;;;;;;;;;-140.72;100.00;63568.78;5098794;28;19920;-72
2023/12/25 00:28:27;;;;;;;;;;;;;;;-140.72;100.00;63550.44;5092032;28;19920;-72
2023/12/25 00:30:52;;;;;;;;;;;;;;;-140.72;100.00;63526.03;5093743;28;19959;-72
2023/12/25 00:33:17;;;;;;;;;;;;;;;-140.72;100.00;63499.59;5081146;28;19928;-72
2023/12/25 00:35:43;;;;;;;;;;;;;;;-140.72;100.00;63469.06;5096319;28;19928;-72
2023/12/25 00:38:08;;;;;;;;;;;;;;;-140.72;100.00;63434.47;5094219;28;20289;-71
2023/12/25 00:40:33;;;;;;;;;;;;;;;-140.72;100.00;63391.75;5097705;28;20319;-71
2023/12/25 00:42:58;;;;;;;;;;;;;;;-140.72;100.00;63395.81;5095753;28;19919;-72
2023/12/25 00:45:23;;;;;;;;;;;;;;;-140.72;100.00;63342.91;5108625;28;20342;-71
2023/12/25 00:47:49;;;;;;;;;;;;;;;-140.72;100.00;63399.88;5096037;28;20373;-71
2023/12/25 00:50:14;;;;;;;;;;;;;;;-140.72;100.00;63426.34;5097241;28;20328;-72
2023/12/25 00:52:39;;;;;;;;;;;;;;;-140.72;100.00;63450.75;5103291;28;19973;-72
2023/12/25 00:55:05;;;;;;;;;;;;;;;-140.72;100.00;63473.13;5098606;28;20395;-71
2023/12/25 00:57:30;;;;;;;;;;;;;;;-140.72;100.00;63528.06;5099035;28;19978;-71
2023/12/25 00:59:55;;;;;;;;;;;;;;;-140.72;100.00;63526.03;5101082;28;19973;-71
2023/12/25 01:02:20;;;;;;;;;;;;;;;-140.72;100.00;63517.91;5094228;28;20665;-71
2023/12/25 01:04:45;;;;;;;;;;;;;;;-140.72;100.00;63599.28;5098974;28;19943;-71
2023/12/25 01:07:11;;;;;;;;;;;;;;;-140.72;100.00;63576.91;5101003;28;19952;-71
2023/12/25 01:09:36;;;;;;;;;;;;;;;-140.72;100.00;63560.63;5097086;28;20012;-71
2023/12/25 01:12:01;;;;;;;;;;;;;;;-140.72;100.00;63595.22;5094333;28;20566;-71
2023/12/25 01:14:27;;;;;;;;;;;;;;;-140.72;100.00;63546.38;5090896;28;19920;-71
2023/12/25 01:16:52;;;;;;;;;;;;;;;-140.72;100.00;63556.56;5098536;28;20423;-71
2023/12/25 01:19:17;;;;;;;;;;;;;;;-140.72;100.00;63552.50;5098379;28;19920;-71
2023/12/25 01:21:42;;;;;;;;;;;;;;;-140.72;100.00;63503.66;5077495;28;19920;-72
2023/12/25 01:24:07;;;;;;;;;;;;;;;-140.72;100.00;63526.03;5095615;28;19928;-72
2023/12/25 01:26:33;;;;;;;;;;;;;;;-140.72;100.00;63469.06;5102555;28;19965;-72
2023/12/25 01:28:58;;;;;;;;;;;;;;;-140.72;100.00;63446.69;5099090;28;19928;-72
2023/12/25 01:31:23;;;;;;;;;;;;;;;-140.72;100.00;63422.25;5078530;28;19932;-72
2023/12/25 01:33:48;;;;;;;;;;;;;;;-140.72;100.00;63454.81;5094984;28;19966;-72
2023/12/25 01:36:14;;;;;;;;;;;;;;;-140.72;100.00;63399.88;5102438;28;20370;-72
2023/12/25 01:38:39;;;;;;;;;;;;;;;-140.72;100.00;63375.47;5097378;28;20309;-72
2023/12/25 01:41:04;;;;;;;;;;;;;;;-140.72;100.00;63328.66;5104012;28;19938;-72
2023/12/25 01:43:29;;;;;;;;;;;;;;;-140.72;100.00;63304.25;5099889;28;19993;-72
2023/12/25 01:45:55;;;;;;;;;;;;;;;-140.72;100.00;63249.31;5100573;28;19929;-72
2023/12/25 01:48:22;;;;;;;;;;;;;;;-140.72;100.00;63184.19;5079990;28;20059;-72
2023/12/25 01:50:47;;;;;;;;;;;;;;;-140.72;100.00;63176.06;5098742;28;19921;-72
2023/12/25 01:53:12;;;;;;;;;;;;;;;-140.72;100.00;63125.19;5093091;28;20002;-72
2023/12/25 01:55:38;;;;;;;;;;;;;;;-140.72;100.00;63100.78;5093395;28;20011;-72
2023/12/25 01:58:03;;;;;;;;;;;;;;;-140.72;100.00;63102.81;5092012;28;19920;-72
2023/12/25 02:00:28;;;;;;;;;;;;;;;-140.72;100.00;63129.28;5094880;28;19924;-72
2023/12/25 02:02:54;;;;;;;;;;;;;;;-140.72;100.00;63135.38;5096856;28;19926;-72
2023/12/25 02:05:19;;;;;;;;;;;;;;;-140.72;100.00;63216.75;5099684;28;20019;-72
2023/12/25 02:07:46;;;;;;;;;;;;;;;-140.72;100.00;63239.13;5082117;28;19919;-71
2023/12/25 02:10:24;;;;;;;;;;;;;;;-140.72;100.00;63275.75;5096119;28;19928;-71
2023/12/25 02:12:49;;;;;;;;;;;;;;;-140.72;100.00;63285.94;5092489;28;19924;-71
2023/12/25 02:15:14;;;;;;;;;;;;;;;-140.72;100.00;63322.56;5103092;28;19927;-70
2023/12/25 02:17:39;;;;;;;;;;;;;;;-140.72;100.00;63316.47;5097101;28;19928;-71
2023/12/25 02:20:05;;;;;;;;;;;;;;;-140.72;100.00;63265.59;5100759;28;20304;-70
2023/12/25 02:22:30;;;;;;;;;;;;;;;-140.72;100.00;63255.41;5092083;28;20007;-72
2023/12/25 02:25:00;;;;;;;;;;;;;;;-140.72;100.00;63220.81;5091800;28;19924;-71
2023/12/25 02:27:26;;;;;;;;;;;;;;;-140.72;100.00;63186.25;5089887;28;20043;-71
2023/12/25 02:29:52;;;;;;;;;;;;;;;-140.72;100.00;63176.06;5088829;28;20443;-71
2023/12/25 02:32:17;;;;;;;;;;;;;;;-140.72;100.00;63090.59;5091782;28;19919;-71
2023/12/25 02:34:44;;;;;;;;;;;;;;;-140.72;100.00;63121.13;5087246;28;20267;-71
2023/12/25 02:37:09;;;;;;;;;;;;;;;-140.72;100.00;63058.06;5102677;28;19926;-71
2023/12/25 02:39:34;;;;;;;;;;;;;;;-140.72;100.00;63054.00;5097228;28;19920;-71
2023/12/25 02:42:00;;;;;;;;;;;;;;;-140.72;100.00;62952.25;5098869;28;19923;-72
2023/12/25 02:44:25;;;;;;;;;;;;;;;-140.72;100.00;62887.16;5095000;28;19927;-72
2023/12/25 02:46:50;;;;;;;;;;;;;;;-140.72;100.00;62872.91;5096328;28;19924;-71
2023/12/25 02:49:16;;;;;;;;;;;;;;;-140.72;100.00;62795.59;5076526;28;19928;-72
2023/12/25 02:51:41;;;;;;;;;;;;;;;-140.72;100.00;62763.06;5094276;28;19930;-71
2023/12/25 02:54:06;;;;;;;;;;;;;;;-140.72;100.00;62685.75;5106009;28;20081;-71
2023/12/25 02:56:31;;;;;;;;;;;;;;;-140.72;100.00;62661.34;5090360;28;19924;-71
2023/12/25 02:58:56;;;;;;;;;;;;;;;-140.72;100.00;62653.19;5094604;28;19927;-71
2023/12/25 03:01:22;;;;;;;;;;;;;;;-140.72;100.00;62600.31;5099125;28;20306;-71
2023/12/25 03:03:47;;;;;;;;;;;;;;;-140.72;100.00;62594.19;5092632;28;19920;-71
2023/12/25 03:06:13;;;;;;;;;;;;;;;-140.72;100.00;62569.78;5090854;28;19925;-71
2023/12/25 03:08:38;;;;;;;;;;;;;;;-140.72;100.00;62598.28;5098121;28;20006;-71
2023/12/25 03:11:03;;;;;;;;;;;;;;;-140.72;100.00;62604.38;5089798;28;20025;-72
2023/12/25 03:13:28;;;;;;;;;;;;;;;-140.72;100.00;62612.50;5094035;28;20062;-71
2023/12/25 03:15:54;;;;;;;;;;;;;;;-140.72;100.00;62649.13;5095436;28;20003;-71
2023/12/25 03:18:19;;;;;;;;;;;;;;;-140.72;100.00;62653.19;5095642;28;19920;-71
2023/12/25 03:20:44;;;;;;;;;;;;;;;-140.72;100.00;62632.84;5095094;28;20417;-71
2023/12/25 03:23:09;;;;;;;;;;;;;;;-140.72;100.00;62638.97;5091950;28;19947;-71
2023/12/25 03:25:34;;;;;;;;;;;;;;;-140.72;100.00;62636.91;5093460;28;19955;-71
2023/12/25 03:28:00;;;;;;;;;;;;;;;-140.72;100.00;62643.03;5092879;28;20278;-72
2023/12/25 03:30:25;;;;;;;;;;;;;;;-140.72;100.00;62651.16;5097186;28;20400;-72
2023/12/25 03:32:50;;;;;;;;;;;;;;;-140.72;100.00;62651.16;5095281;28;19931;-72
2023/12/25 03:35:15;;;;;;;;;;;;;;;-140.72;100.00;62649.13;5100269;28;20036;-71
2023/12/25 03:37:41;;;;;;;;;;;;;;;-140.72;100.00;62683.72;5093591;28;19928;-72
2023/12/25 03:40:06;;;;;;;;;;;;;;;-140.72;100.00;62683.72;5095387;28;19999;-71
2023/12/25 03:42:31;;;;;;;;;;;;;;;-140.72;100.00;62665.41;5094418;28;19920;-71
2023/12/25 03:44:57;;;;;;;;;;;;;;;-140.72;100.00;62641.00;5093979;28;19923;-71
2023/12/25 03:47:22;;;;;;;;;;;;;;;-140.72;100.00;62677.59;5099823;28;19945;-71
2023/12/25 03:49:47;;;;;;;;;;;;;;;-140.72;100.00;62647.09;5099554;28;20274;-71
2023/12/25 03:52:12;;;;;;;;;;;;;;;-140.72;100.00;62626.75;5099949;28;19920;-71
2023/12/25 03:54:37;;;;;;;;;;;;;;;-140.72;100.00;62634.88;5101231;28;19920;-71
2023/12/25 03:57:03;;;;;;;;;;;;;;;-140.72;100.00;62594.19;5094521;28;19920;-72
2023/12/25 03:59:28;;;;;;;;;;;;;;;-140.72;100.00;62616.56;5097009;28;19927;-72
2023/12/25 04:01:53;;;;;;;;;;;;;;;-140.72;100.00;62641.00;5093124;28;19958;-71
2023/12/25 04:04:19;;;;;;;;;;;;;;;-140.72;100.00;62663.38;5103977;28;19938;-72
2023/12/25 04:06:44;;;;;;;;;;;;;;;-140.72;100.00;62649.13;5099091;28;19920;-71
2023/12/25 04:09:09;;;;;;;;;;;;;;;-140.72;100.00;62663.38;5101481;28;20400;-71
2023/12/25 04:11:34;;;;;;;;;;;;;;;-140.72;100.00;62651.16;5100960;28;19926;-71
2023/12/25 04:14:00;;;;;;;;;;;;;;;-140.72;100.00;62626.75;5103143;28;19950;-71
2023/12/25 04:16:26;;;;;;;;;;;;;;;-140.72;100.00;62620.66;5078601;28;19943;-72
2023/12/25 04:18:55;;;;;;;;;;;;;;;-140.72;100.00;62641.00;5104722;28;20391;-72
2023/12/25 04:21:23;;;;;;;;;;;;;;;-140.72;100.00;62651.16;5101122;28;20286;-71
2023/12/25 04:23:49;;;;;;;;;;;;;;;-140.72;100.00;62614.53;5090826;28;19969;-72
2023/12/25 04:26:14;;;;;;;;;;;;;;;-140.72;100.00;62618.63;5111079;28;20031;-71
2023/12/25 04:28:39;;;;;;;;;;;;;;;-140.72;100.00;62590.13;5101921;28;20409;-71
2023/12/25 04:31:05;;;;;;;;;;;;;;;-140.72;100.00;62638.97;5103777;28;19943;-71
2023/12/25 04:33:30;;;;;;;;;;;;;;;-140.72;100.00;62602.34;5099752;28;19935;-71
2023/12/25 04:35:55;;;;;;;;;;;;;;;-140.72;100.00;62610.47;5099161;28;19930;-71
2023/12/25 04:38:20;;;;;;;;;;;;;;;-140.72;100.00;62634.88;5097449;28;20004;-72
2023/12/25 04:40:45;;;;;;;;;;;;;;;-140.72;100.00;62602.34;5100215;28;20337;-72
2023/12/25 04:43:11;;;;;;;;;;;;;;;-140.72;100.00;62598.28;5099543;28;20346;-72
2023/12/25 04:45:36;;;;;;;;;;;;;;;-140.72;100.00;62592.16;5096648;28;19978;-72
2023/12/25 04:48:02;;;;;;;;;;;;;;;-140.72;100.00;62626.75;5100930;28;20423;-72
2023/12/25 04:50:27;;;;;;;;;;;;;;;-140.72;100.00;62584.03;5095903;28;19939;-71
2023/12/25 04:52:52;;;;;;;;;;;;;;;-140.72;100.00;62586.06;5095736;28;20018;-72
2023/12/25 04:55:17;;;;;;;;;;;;;;;-140.72;100.00;62531.13;5075518;28;19928;-72
2023/12/25 04:57:43;;;;;;;;;;;;;;;-140.72;100.00;62539.28;5096794;28;19935;-72
2023/12/25 05:00:08;;;;;;;;;;;;;;;-140.72;100.00;62484.34;5105971;28;19920;-72
2023/12/25 05:02:33;;;;;;;;;;;;;;;-140.72;100.00;62492.47;5095671;28;19920;-72
2023/12/25 05:04:58;;;;;;;;;;;;;;;-140.72;100.00;62518.94;5099196;28;19920;-72
2023/12/25 05:07:24;;;;;;;;;;;;;;;-140.72;100.00;62494.53;5084694;28;19965;-72
2023/12/25 05:09:49;;;;;;;;;;;;;;;-140.72;100.00;62455.88;5108890;28;19973;-72
2023/12/25 05:12:14;;;;;;;;;;;;;;;-140.72;100.00;62411.13;5102710;28;19993;-72
2023/12/25 05:14:39;;;;;;;;;;;;;;;-140.72;100.00;62327.72;5107323;28;20325;-72
2023/12/25 05:17:04;;;;;;;;;;;;;;;-140.72;100.00;62215.84;5094274;28;20342;-72
2023/12/25 05:19:30;;;;;;;;;;;;;;;-140.72;100.00;62081.56;5098586;28;19924;-72
2023/12/25 05:21:55;;;;;;;;;;;;;;;-140.72;100.00;61977.84;5095341;28;19928;-72
2023/12/25 05:24:20;;;;;;;;;;;;;;;-140.72;100.00;61902.59;5100717;28;20386;-72
2023/12/25 05:26:45;;;;;;;;;;;;;;;-140.72;100.00;61821.22;5101946;28;19986;-72
2023/12/25 05:29:10;;;;;;;;;;;;;;;-140.72;100.00;61935.13;5097705;28;20326;-72
2023/12/25 05:31:36;;;;;;;;;;;;;;;-140.72;100.00;62024.63;5103517;28;20361;-72
2023/12/25 05:34:01;;;;;;;;;;;;;;;-140.72;100.00;62079.53;5098637;28;19927;-72
2023/12/25 05:36:26;;;;;;;;;;;;;;;-140.72;100.00;62169.03;5093498;28;19920;-72
2023/12/25 05:38:52;;;;;;;;;;;;;;;-140.72;100.00;62274.81;5106083;28;19927;-72
2023/12/25 05:41:18;;;;;;;;;;;;;;;-140.72;100.00;62346.03;5103219;28;20020;-72
2023/12/25 05:43:43;;;;;;;;;;;;;;;-140.72;100.00;62459.94;5097136;28;19986;-72
2023/12/25 05:46:08;;;;;;;;;;;;;;;-140.72;100.00;62571.81;5098681;28;19928;-72
2023/12/25 05:48:33;;;;;;;;;;;;;;;-140.72;100.00;62592.16;5098805;28;19920;-72
2023/12/25 05:50:59;;;;;;;;;;;;;;;-140.72;100.00;62673.53;5091008;28;19928;-72
2023/12/25 05:53:25;;;;;;;;;;;;;;;-140.72;100.00;62708.13;5092951;28;19959;-72
2023/12/25 05:55:50;;;;;;;;;;;;;;;-140.72;100.00;62761.03;5089867;28;19931;-72
2023/12/25 05:58:15;;;;;;;;;;;;;;;-140.72;100.00;62797.63;5094640;28;20388;-72
2023/12/25 06:00:40;;;;;;;;;;;;;;;-140.72;100.00;62809.84;5100882;28;19920;-72
2023/12/25 06:03:06;;;;;;;;;;;;;;;-140.72;100.00;62832.22;5095986;28;20311;-72
2023/12/25 06:05:31;;;;;;;;;;;;;;;-140.72;100.00;62850.53;5091250;28;19965;-72
2023/12/25 06:07:56;;;;;;;;;;;;;;;-140.72;100.00;62834.25;5095319;28;19988;-72
2023/12/25 06:10:22;;;;;;;;;;;;;;;-140.72;100.00;62820.03;5098823;28;20011;-72
2023/12/25 06:12:47;;;;;;;;;;;;;;;-140.72;100.00;62781.38;5091585;28;19962;-72
2023/12/25 06:15:13;;;;;;;;;;;;;;;-140.72;100.00;62758.97;5096159;28;19928;-72
2023/12/25 06:17:38;;;;;;;;;;;;;;;-140.72;100.00;62781.38;5099653;28;19919;-72
2023/12/25 06:20:04;;;;;;;;;;;;;;;-140.72;100.00;62736.59;5100868;28;19943;-72
2023/12/25 06:22:29;;;;;;;;;;;;;;;-140.72;100.00;62720.34;5100589;28;19920;-72
2023/12/25 06:24:55;;;;;;;;;;;;;;;-140.72;100.00;62732.53;5091667;28;19920;-72
2023/12/25 06:27:21;;;;;;;;;;;;;;;-140.72;100.00;62742.72;5097712;28;19923;-72
2023/12/25 06:29:46;;;;;;;;;;;;;;;-140.72;100.00;62714.22;5100449;28;20067;-72
2023/12/25 06:32:12;;;;;;;;;;;;;;;-140.72;100.00;62661.34;5103593;28;19960;-72
2023/12/25 06:34:37;;;;;;;;;;;;;;;-140.72;100.00;62671.50;5101798;28;19920;-72
2023/12/25 06:37:03;;;;;;;;;;;;;;;-140.72;100.00;62683.72;5092675;28;19937;-72
2023/12/25 06:39:28;;;;;;;;;;;;;;;-140.72;100.00;62675.56;5091065;28;20017;-71
2023/12/25 06:41:53;;;;;;;;;;;;;;;-140.72;100.00;62681.69;5092675;28;19999;-72
2023/12/25 06:44:19;;;;;;;;;;;;;;;-140.72;100.00;62742.72;5065352;28;19942;-72
2023/12/25 06:46:44;;;;;;;;;;;;;;;-140.72;100.00;62720.34;5071255;28;19916;-71
2023/12/25 06:49:09;;;;;;;;;;;;;;;-140.72;100.00;62716.25;5082474;28;19970;-71
2023/12/25 06:51:34;;;;;;;;;;;;;;;-140.72;100.00;62730.50;5091578;28;19920;-71
2023/12/25 06:54:00;;;;;;;;;;;;;;;-140.72;100.00;62734.56;5093045;28;19926;-71
2023/12/25 06:56:25;;;;;;;;;;;;;;;-140.72;100.00;62754.91;5091562;28;20036;-71
2023/12/25 06:58:50;;;;;;;;;;;;;;;-140.72;100.00;62744.75;5094849;28;20026;-74
2023/12/25 07:01:20;;;;;;;;;;;;;;;-140.72;100.00;62765.09;5082013;28;19924;-73
2023/12/25 07:03:45;;;;;;;;;;;;;;;-140.72;100.00;62732.53;5091643;28;19923;-75
2023/12/25 07:06:11;;;;;;;;;;;;;;;-140.72;100.00;62752.88;5080015;28;20281;-72
2023/12/25 07:08:36;;;;;;;;;;;;;;;-140.72;100.00;62704.06;5092727;28;20369;-71
2023/12/25 07:11:02;;;;;;;;;;;;;;;-140.72;100.00;62673.53;5092228;28;20349;-71
2023/12/25 07:13:27;;;;;;;;;;;;;;;-140.72;100.00;62618.63;5095933;28;20449;-73
2023/12/25 07:15:52;;;;;;;;;;;;;;;-140.72;100.00;62641.00;5077636;28;19978;-75
2023/12/25 07:18:17;;;;;;;;;;;;;;;-140.72;100.00;62549.44;5081568;28;19986;-73
2023/12/25 07:21:19;;;;;;;;;;;;;;;-140.72;100.00;62553.50;5104904;28;19928;-72
2023/12/25 07:23:44;;;;;;;;;;;;;;;-140.72;100.00;62557.59;5069673;28;20011;-72
2023/12/25 07:26:09;;;;;;;;;;;;;;;-140.72;100.00;62539.28;5086109;28;20000;-74
2023/12/25 07:28:38;;;;;;;;;;;;;;;-140.72;100.00;62518.94;5064104;28;20010;-73
2023/12/25 07:31:04;;;;;;;;;;;;;;;-140.72;100.00;62520.97;5083280;28;20022;-72
2023/12/25 07:33:33;;;;;;;;;;;;;;;-140.72;100.00;62492.47;5093311;28;20381;-72
2023/12/25 07:35:58;;;;;;;;;;;;;;;-140.72;100.00;62498.59;5101679;28;19966;-75
2023/12/25 07:38:23;;;;;;;;;;;;;;;-140.72;100.00;62459.94;5099920;28;20370;-73
2023/12/25 07:40:49;;;;;;;;;;;;;;;-140.72;100.00;62439.59;5098843;28;19916;-72
2023/12/25 07:43:14;;;;;;;;;;;;;;;-140.72;100.00;62402.97;5095609;28;19935;-72
2023/12/25 07:45:40;;;;;;;;;;;;;;;-140.72;100.00;62411.13;5076508;28;19921;-72
2023/12/25 07:48:05;;;;;;;;;;;;;;;-140.72;100.00;62431.47;5097682;28;19915;-72
2023/12/25 07:50:31;;;;;;;;;;;;;;;-140.72;100.00;62441.63;5085794;28;19928;-72
2023/12/25 07:52:56;;;;;;;;;;;;;;;-140.72;100.00;62451.81;5100032;28;20369;-72
2023/12/25 07:55:21;;;;;;;;;;;;;;;-140.72;100.00;62390.78;5104672;28;19920;-71
2023/12/25 07:57:46;;;;;;;;;;;;;;;-140.72;100.00;62411.13;5103206;28;19936;-71
2023/12/25 08:00:12;;;;;;;;;;;;;;;-140.72;100.00;62423.31;5096906;28;19916;-72
2023/12/25 08:02:37;;;;;;;;;;;;;;;-140.72;100.00;62464.00;5085684;28;19920;-72
2023/12/25 08:05:03;;;;;;;;;;;;;;;-140.72;100.00;62500.63;5103230;28;19917;-72
2023/12/25 08:07:28;;;;;;;;;;;;;;;-140.72;100.00;62537.25;5086005;28;20274;-72
2023/12/25 08:09:53;;;;;;;;;;;;;;;-140.72;100.00;62516.91;5091219;28;19942;-72
2023/12/25 08:12:18;;;;;;;;;;;;;;;-140.72;100.00;62553.50;5087288;28;19956;-71
2023/12/25 08:14:44;;;;;;;;;;;;;;;-140.72;100.00;62565.72;5099477;28;20448;-71
2023/12/25 08:17:09;;;;;;;;;;;;;;;-140.72;100.00;62551.47;5100662;28;20374;-71
2023/12/25 08:19:34;;;;;;;;;;;;;;;-140.72;100.00;62537.25;5087885;28;19923;-73
2023/12/25 08:21:59;;;;;;;;;;;;;;;-140.72;100.00;62518.94;5101428;28;19920;-73
2023/12/25 08:24:25;;;;;;;;;;;;;;;-140.72;100.00;62459.94;5108926;28;19920;-71
2023/12/25 08:26:51;;;;;;;;;;;;;;;-140.72;100.00;62451.81;5091729;28;19924;-71
2023/12/25 08:29:16;;;;;;;;;;;;;;;-140.72;100.00;62451.81;5097954;28;19970;-71
2023/12/25 08:31:41;;;;;;;;;;;;;;;-140.72;100.00;62390.78;5097460;28;19931;-71
2023/12/25 08:34:06;;;;;;;;;;;;;;;-140.72;100.00;62358.22;5093076;28;19973;-71
2023/12/25 08:36:31;;;;;;;;;;;;;;;-140.72;100.00;62372.47;5089947;28;20007;-71
2023/12/25 08:38:57;;;;;;;;;;;;;;;-140.72;100.00;62335.84;5101774;28;19916;-71
2023/12/25 08:41:22;;;;;;;;;;;;;;;-140.72;100.00;62293.13;5097861;28;19928;-72
2023/12/25 08:43:47;;;;;;;;;;;;;;;-140.72;100.00;62321.59;5099179;28;19920;-71
2023/12/25 08:46:12;;;;;;;;;;;;;;;-140.72;100.00;62339.91;5094710;28;19927;-71
2023/12/25 08:48:37;;;;;;;;;;;;;;;-140.72;100.00;62341.94;5096358;28;19950;-71
2023/12/25 08:51:03;;;;;;;;;;;;;;;-140.72;100.00;62382.63;5083215;28;19927;-71
2023/12/25 08:53:28;;;;;;;;;;;;;;;-140.72;100.00;62451.81;5100911;28;19927;-71
2023/12/25 08:55:53;;;;;;;;;;;;;;;-140.72;100.00;62423.31;5101680;28;19973;-71
2023/12/25 08:58:18;;;;;;;;;;;;;;;-140.72;100.00;62427.38;5099466;28;19931;-71
2023/12/25 09:00:44;;;;;;;;;;;;;;;-140.72;100.00;62402.97;5103121;28;19920;-71
2023/12/25 09:03:09;;;;;;;;;;;;;;;-140.72;100.00;62392.81;5096412;28;19927;-71
2023/12/25 09:05:34;;;;;;;;;;;;;;;-140.72;100.00;62337.88;5079547;28;19936;-71
2023/12/25 09:08:00;;;;;;;;;;;;;;;-140.72;100.00;62291.09;5078657;28;19927;-71
2023/12/25 09:10:25;;;;;;;;;;;;;;;-140.72;100.00;62295.16;5096847;28;20054;-71
2023/12/25 09:12:50;;;;;;;;;;;;;;;-140.72;100.00;62169.03;5094150;28;19931;-71
2023/12/25 09:15:16;;;;;;;;;;;;;;;-140.72;100.00;62067.34;5096264;28;19920;-71
2023/12/25 09:17:41;;;;;;;;;;;;;;;-140.72;100.00;62044.97;5091818;28;20003;-71
2023/12/25 09:20:07;;;;;;;;;;;;;;;-140.72;100.00;61969.72;5098382;28;19959;-71
2023/12/25 09:22:32;;;;;;;;;;;;;;;-140.72;100.00;61857.84;5094444;28;19920;-71
2023/12/25 09:24:57;;;;;;;;;;;;;;;-140.72;100.00;61788.69;5090102;28;19927;-71
2023/12/25 09:27:24;;;;;;;;;;;;;;;-140.72;100.00;61695.13;5099332;28;19920;-77
2023/12/25 09:29:49;;;;;;;;;;;;;;;-140.72;100.00;61601.56;5099471;28;20343;-72
2023/12/25 09:32:14;;;;;;;;;;;;;;;-140.72;100.00;61564.97;5098719;28;19928;-75
2023/12/25 09:34:39;;;;;;;;;;;;;;;-140.72;100.00;61457.16;5098690;28;20022;-71
2023/12/25 09:37:05;;;;;;;;;;;;;;;-140.72;100.00;61432.75;5096635;28;19973;-71
2023/12/25 09:39:30;;;;;;;;;;;;;;;-140.72;100.00;61375.81;5111418;28;19924;-71
2023/12/25 09:41:55;;;;;;;;;;;;;;;-140.72;100.00;61278.19;5096002;28;19928;-71
2023/12/25 09:44:21;;;;;;;;;;;;;;;-140.72;100.00;61247.69;5109092;28;19919;-80
2023/12/25 09:46:46;;;;;;;;;;;;;;;-140.72;100.00;61156.19;5094529;28;20304;-74
2023/12/25 09:49:13;;;;;;;;;;;;;;;-140.72;100.00;61117.53;5096183;28;19920;-70
2023/12/25 09:51:38;;;;;;;;;;;;;;;-140.72;100.00;61028.06;5094402;28;19928;-75
2023/12/25 09:54:03;;;;;;;;;;;;;;;-140.72;100.00;60942.66;5091049;28;19928;-73
2023/12/25 09:56:30;;;;;;;;;;;;;;;-140.72;100.00;60853.19;5090523;28;19927;-71
2023/12/25 09:58:57;;;;;;;;;;;;;;;-140.72;100.00;60723.03;5091992;28;19920;-71
2023/12/25 10:01:23;;;;;;;;;;;;;;;-140.72;100.00;60739.31;5090502;28;19928;-71
2023/12/25 10:03:48;;;;;;;;;;;;;;;-140.72;100.00;60647.81;5096690;28;20262;-72
2023/12/25 10:06:14;;;;;;;;;;;;;;;-140.72;100.00;60531.91;5097151;28;19920;-74
2023/12/25 10:08:39;;;;;;;;;;;;;;;-140.72;100.00;60462.78;5100823;28;20101;-73
2023/12/25 10:11:07;;;;;;;;;;;;;;;-140.72;100.00;60389.59;5079938;28;19928;-71
2023/12/25 10:13:33;;;;;;;;;;;;;;;-140.72;100.00;60296.06;5074955;28;19920;-71
2023/12/25 10:15:58;;;;;;;;;;;;;;;-140.72;100.00;60243.19;5093371;28;20011;-71
2023/12/25 10:18:23;;;;;;;;;;;;;;;-140.72;100.00;60127.31;5102813;28;19920;-71
2023/12/25 10:20:56;;;;;;;;;;;;;;;-140.72;100.00;60072.41;5096526;28;19924;-73
2023/12/25 10:23:26;;;;;;;;;;;;;;;-140.72;100.00;60043.97;5092431;28;19927;-73
2023/12/25 10:25:52;;;;;;;;;;;;;;;-140.72;100.00;60035.81;5099627;28;19977;-73
2023/12/25 10:28:18;;;;;;;;;;;;;;;-140.72;100.00;60013.47;5098124;28;19920;-73
2023/12/25 10:30:44;;;;;;;;;;;;;;;-140.72;100.00;60046.00;5077977;28;19920;-73
2023/12/25 10:33:10;;;;;;;;;;;;;;;-140.72;100.00;60106.97;5094718;28;20316;-72
2023/12/25 10:35:36;;;;;;;;;;;;;;;-140.72;100.00;60182.22;5098262;28;20491;-71
2023/12/25 10:38:03;;;;;;;;;;;;;;;-140.72;100.00;60216.78;5094539;28;20056;-71
2023/12/25 10:40:31;;;;;;;;;;;;;;;-140.72;100.00;60257.44;5098168;28;19920;-73
2023/12/25 10:42:56;;;;;;;;;;;;;;;-140.72;100.00;60312.31;5094699;28;19974;-71
2023/12/25 10:45:30;;;;;;;;;;;;;;;-140.72;100.00;60353.00;5076379;28;20576;-70
2023/12/25 10:47:56;;;;;;;;;;;;;;;-140.72;100.00;60371.28;5106268;28;19927;-72
2023/12/25 10:50:25;;;;;;;;;;;;;;;-140.72;100.00;60438.38;5100576;28;20500;-72
2023/12/25 10:52:51;;;;;;;;;;;;;;;-140.72;100.00;60428.22;5101314;28;19926;-72
2023/12/25 10:55:38;;;;;;;;;;;;;;;-140.72;100.00;60434.31;5083296;28;20687;-73
2023/12/25 10:58:05;;;;;;;;;;;;;;;-140.72;100.00;60487.19;5102817;28;20011;-74
2023/12/25 11:00:31;;;;;;;;;;;;;;;-140.72;100.00;60450.59;5093384;28;19931;-73
2023/12/25 11:03:00;;;;;;;;;;;;;;;-140.72;100.00;60411.94;5095520;28;20094;-79
2023/12/25 11:05:26;;;;;;;;;;;;;;;-140.72;100.00;60385.53;5078914;28;20677;-72
2023/12/25 11:07:52;;;;;;;;;;;;;;;-140.72;100.00;60363.16;5094846;28;19970;-76
2023/12/25 11:10:17;;;;;;;;;;;;;;;-140.72;100.00;60369.25;5084931;28;19928;-76
2023/12/25 11:12:43;;;;;;;;;;;;;;;-140.72;100.00;60373.31;5097531;28;20439;-74
2023/12/25 11:15:08;;;;;;;;;;;;;;;-140.72;100.00;60338.75;5099807;28;19920;-83
2023/12/25 11:17:34;;;;;;;;;;;;;;;-140.72;100.00;60348.94;5082347;28;19960;-72
2023/12/25 11:20:03;;;;;;;;;;;;;;;-140.72;100.00;60306.22;5095023;28;19920;-72
2023/12/25 11:22:29;;;;;;;;;;;;;;;-140.72;100.00;60338.75;5097672;28;19920;-72
2023/12/25 11:24:56;;;;;;;;;;;;;;;-140.72;100.00;60267.59;5116152;28;19974;-74
2023/12/25 11:27:21;;;;;;;;;;;;;;;-140.72;100.00;60263.53;5099806;28;20074;-73
2023/12/25 11:29:47;;;;;;;;;;;;;;;-140.72;100.00;60208.63;5093395;28;20373;-72
2023/12/25 11:32:13;;;;;;;;;;;;;;;-140.72;100.00;60222.88;5103000;28;19929;-70
2023/12/25 11:34:39;;;;;;;;;;;;;;;-140.72;100.00;60147.63;5095566;28;20026;-70
2023/12/25 11:37:16;;;;;;;;;;;;;;;-140.72;100.00;60106.97;5099866;28;19991;-75
2023/12/25 11:39:47;;;;;;;;;;;;;;;-140.72;100.00;60043.97;5088209;28;19920;-73
2023/12/25 11:42:13;;;;;;;;;;;;;;;-140.72;100.00;60023.63;5104283;28;20012;-73
2023/12/25 11:44:38;;;;;;;;;;;;;;;-140.72;100.00;60072.41;5103888;28;19969;-71
2023/12/25 11:47:03;;;;;;;;;;;;;;;-140.72;100.00;60082.59;5076810;28;19920;-78
2023/12/25 11:49:31;;;;;;;;;;;;;;;-140.72;100.00;60104.94;5085095;28;19935;-71
2023/12/25 11:51:57;;;;;;;;;;;;;;;-140.72;100.00;60119.19;5101422;28;20373;-72
2023/12/25 11:54:27;;;;;;;;;;;;;;;-140.72;100.00;60117.16;5096242;28;19934;-71
2023/12/25 11:56:53;;;;;;;;;;;;;;;-140.72;100.00;60098.84;5093511;28;19942;-71
2023/12/25 11:59:18;;;;;;;;;;;;;;;-140.72;100.00;60123.25;5101348;28;20387;-72
2023/12/25 12:01:44;;;;;;;;;;;;;;;-140.72;100.00;60109.00;5079632;28;19960;-74
2023/12/25 12:04:09;;;;;;;;;;;;;;;-140.72;100.00;60121.22;5074026;28;20258;-72
2023/12/25 12:06:34;;;;;;;;;;;;;;;-140.72;100.00;60080.56;5094699;28;19966;-72
2023/12/25 12:08:59;;;;;;;;;;;;;;;-140.72;100.00;60088.69;5099309;28;19928;-75
2023/12/25 12:11:25;;;;;;;;;;;;;;;-140.72;100.00;60039.88;5093331;28;19928;-73